Time;durP1;ratioP1;P1;durP2;ratioP2;P2;SDS_P1;SDS_P2;PMS_P1;PMS_P2;Temp;Humidity;BMP_temperature;BMP_pressure;BME280_temperature;BME280_humidity;BME280_pressure;Samples;Min_cycle;Max_cycle;Signal;HPM_P1;HPM_P2
2022/09/01 00:01:36;;;;;;;4.97;2.00;;;;;;;18.77;58.67;102295.13;4974403;28;20032;-65
2022/09/01 00:04:02;;;;;;;4.72;2.53;;;;;;;18.73;58.70;102301.25;4980817;28;20140;-64
2022/09/01 00:06:35;;;;;;;3.20;2.30;;;;;;;18.71;58.68;102297.75;4972499;28;20175;-66
2022/09/01 00:09:07;;;;;;;5.35;2.70;;;;;;;18.54;59.56;102292.34;4981803;28;20029;-65
2022/09/01 00:11:33;;;;;;;4.75;2.55;;;;;;;18.63;59.06;102288.91;4976047;28;20975;-66
2022/09/01 00:14:00;;;;;;;4.45;2.90;;;;;;;18.47;59.53;102289.72;4978701;28;20044;-67
2022/09/01 00:16:26;;;;;;;3.65;2.58;;;;;;;18.50;59.81;102284.44;4968245;28;20083;-65
2022/09/01 00:18:54;;;;;;;5.80;2.60;;;;;;;18.49;59.43;102286.19;4992253;28;20022;-65
2022/09/01 00:21:33;;;;;;;4.15;2.40;;;;;;;18.38;60.22;102287.91;4988710;28;20033;-65
2022/09/01 00:24:00;;;;;;;4.25;2.60;;;;;;;18.37;60.02;102283.50;4993469;28;20029;-65
2022/09/01 00:26:30;;;;;;;4.35;2.65;;;;;;;18.11;60.77;102282.53;4985298;28;20172;-65
2022/09/01 00:28:55;;;;;;;3.45;2.53;;;;;;;18.30;60.28;102281.72;4971381;28;20089;-65
2022/09/01 00:31:28;;;;;;;5.60;2.58;;;;;;;18.42;59.89;102284.41;4989862;28;20116;-66
2022/09/01 00:33:54;;;;;;;7.07;2.60;;;;;;;18.39;60.19;102276.47;4982169;28;20037;-66
2022/09/01 00:36:20;;;;;;;5.25;2.70;;;;;;;18.21;60.44;102279.94;4997719;28;20029;-64
2022/09/01 00:38:46;;;;;;;7.72;2.80;;;;;;;18.27;60.60;102281.72;4986327;28;20053;-66
2022/09/01 00:41:13;;;;;;;4.95;2.83;;;;;;;18.33;60.33;102281.75;4986025;28;20047;-67
2022/09/01 00:43:47;;;;;;;4.45;2.70;;;;;;;18.28;60.40;102279.97;4979787;28;20134;-64
2022/09/01 00:46:43;;;;;;;6.32;2.70;;;;;;;18.30;60.61;102279.06;4989278;28;20052;-64
2022/09/01 00:49:19;;;;;;;3.88;2.55;;;;;;;18.12;61.23;102281.63;4983882;28;21806;-65
2022/09/01 00:51:53;;;;;;;4.88;2.90;;;;;;;18.26;60.55;102272.03;4967677;28;20033;-65
2022/09/01 00:54:26;;;;;;;4.68;2.58;;;;;;;18.34;60.25;102270.31;4986776;28;20049;-64
2022/09/01 00:56:55;;;;;;;4.75;2.80;;;;;;;18.13;60.97;102268.44;4984022;28;20435;-65
2022/09/01 00:59:27;;;;;;;6.80;2.90;;;;;;;18.02;61.49;102262.25;4985344;28;20064;-65
2022/09/01 01:01:56;;;;;;;7.18;2.58;;;;;;;18.07;61.24;102268.44;4995806;28;20039;-64
2022/09/01 01:04:24;;;;;;;3.90;2.42;;;;;;;17.83;62.02;102256.00;4983483;28;20049;-66
2022/09/01 01:07:00;;;;;;;5.55;2.70;;;;;;;18.11;61.32;102264.91;4974327;28;20035;-66
2022/09/01 01:09:29;;;;;;;4.93;2.70;;;;;;;18.13;61.14;102259.66;4981811;28;20393;-66
2022/09/01 01:11:59;;;;;;;3.80;2.78;;;;;;;18.13;61.09;102255.25;4987048;28;20506;-64
2022/09/01 01:14:26;;;;;;;5.88;2.60;;;;;;;18.10;61.22;102259.66;4986664;28;20053;-64
2022/09/01 01:16:53;;;;;;;5.68;2.60;;;;;;;18.05;60.96;102253.47;4977120;28;20370;-66
2022/09/01 01:25:13;;;;;;;3.33;2.47;;;;;;;17.96;61.64;102258.69;4987743;28;20357;-64
2022/09/01 01:27:41;;;;;;;6.82;2.83;;;;;;;17.85;61.90;102248.09;4962393;28;20053;-65
2022/09/01 01:30:09;;;;;;;8.35;2.78;;;;;;;18.05;61.08;102254.34;4988651;28;20058;-64
2022/09/01 01:32:42;;;;;;;4.57;2.72;;;;;;;17.89;61.64;102255.13;4975357;28;20123;-65
2022/09/01 01:35:13;;;;;;;4.95;3.08;;;;;;;17.79;62.12;102248.94;4981233;28;20042;-65
2022/09/01 01:37:47;;;;;;;6.93;2.70;;;;;;;17.90;61.66;102251.63;4981509;28;20029;-65
2022/09/01 01:40:14;;;;;;;;;;;;;;;17.87;61.95;102262.16;4972375;28;20045;-66
2022/09/01 01:42:45;;;;;;;6.18;2.67;;;;;;;17.94;61.56;102258.69;4996151;28;19913;-66
2022/09/01 01:45:15;;;;;;;3.80;2.70;;;;;;;17.78;62.43;102243.66;4988366;28;20029;-66
2022/09/01 01:47:41;;;;;;;3.85;2.70;;;;;;;17.78;62.08;102247.19;4965445;28;20037;-66
2022/09/01 01:50:08;;;;;;;4.10;2.80;;;;;;;17.64;63.00;102253.22;4989337;28;20048;-65
2022/09/01 01:52:34;;;;;;;6.45;2.70;;;;;;;17.88;61.83;102245.47;4975749;28;20046;-65
2022/09/01 01:55:00;;;;;;;4.38;2.65;;;;;;;17.79;62.12;102242.78;4989317;28;20025;-66
2022/09/01 01:57:30;;;;;;;5.22;2.92;;;;;;;17.68;62.88;102248.00;4985891;28;20484;-65
2022/09/01 01:59:56;;;;;;;3.42;2.30;;;;;;;17.78;62.17;102257.72;4981532;28;20040;-64
2022/09/01 02:02:22;;;;;;;7.43;2.95;;;;;;;17.57;62.90;102249.63;4988701;28;20021;-66
2022/09/01 02:04:47;;;;;;;4.68;2.95;;;;;;;17.72;62.41;102249.78;4979575;28;20049;-64
2022/09/01 02:07:13;;;;;;;4.40;2.85;;;;;;;17.81;62.33;102244.53;4983562;28;20219;-66
2022/09/01 02:09:42;;;;;;;5.50;3.00;;;;;;;17.61;62.88;102248.84;4977949;28;20112;-65
2022/09/01 02:12:08;;;;;;;6.60;2.83;;;;;;;17.64;62.84;102242.69;4975748;28;20068;-65
2022/09/01 02:14:33;;;;;;;4.75;2.90;;;;;;;17.57;63.17;102251.38;4983236;28;20116;-64
2022/09/01 02:17:00;;;;;;;5.13;3.03;;;;;;;17.54;63.09;102247.00;4980860;28;20034;-65
2022/09/01 02:19:26;;;;;;;4.78;2.85;;;;;;;17.56;63.09;102250.53;4966842;28;20032;-65
2022/09/01 02:21:54;;;;;;;7.30;3.10;;;;;;;17.38;64.02;102245.13;4980495;28;20056;-65
2022/09/01 02:24:22;;;;;;;9.10;3.00;;;;;;;17.61;62.99;102242.69;4980371;28;20029;-67
2022/09/01 02:26:48;;;;;;;8.07;3.10;;;;;;;17.51;63.18;102241.69;4987822;28;20033;-66
2022/09/01 02:29:17;;;;;;;6.40;2.92;;;;;;;17.49;63.24;102238.19;4977605;28;20487;-65
2022/09/01 02:31:45;;;;;;;5.75;2.97;;;;;;;17.64;62.75;102234.78;4975843;28;20445;-64
2022/09/01 02:34:12;;;;;;;5.95;2.83;;;;;;;17.64;62.76;102234.78;4981866;28;20064;-64
2022/09/01 02:36:46;;;;;;;5.95;3.00;;;;;;;17.61;62.90;102238.28;4990743;28;20412;-64
2022/09/01 02:39:16;;;;;;;4.88;3.10;;;;;;;17.47;63.17;102234.63;4977783;28;20185;-65
2022/09/01 02:41:42;;;;;;;4.78;3.10;;;;;;;17.59;62.96;102232.09;4980547;28;20041;-66
2022/09/01 02:44:10;;;;;;;5.43;2.90;;;;;;;17.59;62.72;102226.81;4982901;28;20030;-66
2022/09/01 02:46:40;;;;;;;6.20;3.05;;;;;;;17.29;64.15;102231.88;4990894;28;20506;-65
2022/09/01 02:49:16;;;;;;;7.05;2.90;;;;;;;17.44;63.33;102232.84;4982156;28;20574;-65
2022/09/01 02:51:44;;;;;;;9.82;2.95;;;;;;;17.28;63.71;102227.47;4977481;28;20112;-64
2022/09/01 02:54:14;;;;;;;4.95;3.03;;;;;;;17.26;63.90;102227.44;4986311;28;20064;-65
2022/09/01 02:56:39;;;;;;;6.47;3.45;;;;;;;17.52;62.87;102232.03;4997084;28;20033;-65
2022/09/01 02:59:11;;;;;;;6.38;3.47;;;;;;;17.39;63.23;102226.66;4971922;28;20068;-64
2022/09/01 03:01:38;;;;;;;7.32;3.28;;;;;;;17.43;62.80;102225.84;4982807;28;20827;-65
2022/09/01 03:04:07;;;;;;;5.18;3.10;;;;;;;17.50;62.57;102224.13;4989579;28;20048;-64
2022/09/01 03:06:35;;;;;;;6.07;3.10;;;;;;;17.48;62.60;102227.63;4987710;28;20052;-64
2022/09/01 03:09:02;;;;;;;4.07;2.97;;;;;;;17.18;63.48;102216.00;4988367;28;20033;-64
2022/09/01 03:11:39;;;;;;;9.02;3.10;;;;;;;17.26;63.38;102216.91;4979492;28;20049;-65
2022/09/01 03:14:06;;;;;;;4.50;2.85;;;;;;;17.34;63.09;102215.22;5002828;28;20057;-65
2022/09/01 03:16:32;;;;;;;5.80;3.03;;;;;;;17.29;63.25;102218.69;4980037;28;20041;-66
2022/09/01 03:18:58;;;;;;;5.25;3.00;;;;;;;17.39;62.78;102216.13;4973790;28;20395;-64
2022/09/01 03:21:26;;;;;;;6.65;3.00;;;;;;;17.35;62.59;102210.84;4993965;28;20030;-66
2022/09/01 03:23:52;;;;;;;5.20;3.00;;;;;;;17.44;62.18;102214.41;4987527;28;20037;-64
2022/09/01 03:26:21;;;;;;;5.38;3.20;;;;;;;17.30;63.05;102215.19;4982101;28;20022;-67
2022/09/01 03:28:48;;;;;;;8.25;3.30;;;;;;;17.20;63.13;102214.22;4993879;28;20060;-65
2022/09/01 03:31:41;;;;;;;5.53;3.10;;;;;;;17.14;62.85;102216.81;4975986;28;20277;-64
2022/09/01 03:34:09;;;;;;;4.88;3.15;;;;;;;17.14;62.91;102218.59;4987722;28;20033;-66
2022/09/01 03:36:35;;;;;;;7.20;3.25;;;;;;;17.07;63.35;102214.16;4983999;28;20022;-66
2022/09/01 03:39:01;;;;;;;4.63;2.83;;;;;;;17.19;62.67;102216.88;4982526;28;20052;-66
2022/09/01 03:41:29;;;;;;;4.80;3.10;;;;;;;17.21;62.77;102207.19;4979816;28;20037;-67
2022/09/01 03:43:55;;;;;;;5.93;3.17;;;;;;;17.16;62.70;102209.81;4991535;28;20566;-65
2022/09/01 03:46:21;;;;;;;5.03;3.20;;;;;;;17.00;63.16;102197.41;4975427;28;20042;-65
2022/09/01 03:48:49;;;;;;;5.78;3.08;;;;;;;16.95;63.48;102204.41;4982558;28;20056;-65
2022/09/01 03:51:21;;;;;;;7.32;3.28;;;;;;;17.03;62.96;102206.19;4998582;28;20775;-64
2022/09/01 03:53:47;;;;;;;5.97;3.38;;;;;;;17.16;62.66;102204.53;4973629;28;20045;-64
2022/09/01 03:56:14;;;;;;;4.80;3.10;;;;;;;17.14;62.85;102205.41;4987780;28;20667;-65
2022/09/01 03:58:45;;;;;;;5.03;3.25;;;;;;;16.99;63.08;102201.78;4975563;28;20033;-64
2022/09/01 04:01:11;;;;;;;6.38;3.40;;;;;;;17.14;62.91;102201.00;4990715;28;20035;-64
2022/09/01 04:03:40;;;;;;;5.72;3.10;;;;;;;17.17;62.47;102201.03;4977321;28;20025;-66
2022/09/01 04:06:08;;;;;;;5.57;3.40;;;;;;;17.09;62.51;102199.22;4988803;28;20032;-66
2022/09/01 04:08:33;;;;;;;6.25;3.45;;;;;;;17.06;62.91;102199.19;4985857;28;20033;-66
2022/09/01 04:11:03;;;;;;;5.55;3.30;;;;;;;17.12;62.36;102197.50;4986127;28;20048;-66
2022/09/01 04:13:39;;;;;;;4.25;3.30;;;;;;;17.04;62.62;102196.53;4978230;28;20029;-65
2022/09/01 04:18:08;;;;;;;5.63;3.50;;;;;;;17.14;62.19;102187.81;4980405;28;20042;-66
2022/09/01 04:19:14;;;;;;;;;;;;;;;16.90;63.04;102190.28;4991272;28;20036;-65
2022/09/01 04:21:41;;;;;;;6.38;3.75;;;;;;;16.97;62.53;102197.38;4967405;28;19999;-65
2022/09/01 04:24:09;;;;;;;6.32;3.75;;;;;;;16.95;62.09;102191.22;4985228;28;20863;-65
2022/09/01 04:26:34;;;;;;;6.55;3.30;;;;;;;17.00;62.28;102198.28;4976241;28;20108;-66
2022/09/01 04:29:00;;;;;;;7.03;3.58;;;;;;;17.06;61.96;102192.19;4979476;28;20041;-65
2022/09/01 04:31:26;;;;;;;5.97;3.78;;;;;;;16.72;63.55;102200.66;4982727;28;20021;-66
2022/09/01 04:33:51;;;;;;;7.88;3.80;;;;;;;16.53;64.07;102199.56;4990577;28;21845;-67
2022/09/01 04:36:31;;;;;;;6.88;3.80;;;;;;;16.61;63.54;102209.34;4983301;28;20022;-66
2022/09/01 04:38:59;;;;;;;5.72;3.60;;;;;;;16.88;62.63;102208.72;4983411;28;20037;-67
2022/09/01 04:41:30;;;;;;;5.55;3.47;;;;;;;16.92;62.55;102194.69;4978565;28;20037;-65
2022/09/01 04:43:57;;;;;;;6.75;3.72;;;;;;;16.66;63.22;102200.59;4977346;28;20029;-65
2022/09/01 04:46:28;;;;;;;8.88;3.50;;;;;;;16.66;63.26;102204.09;4983637;28;20115;-65
2022/09/01 04:48:56;;;;;;;6.18;3.67;;;;;;;16.77;63.02;102205.09;4986922;28;20026;-65
2022/09/01 04:51:23;;;;;;;6.82;4.07;;;;;;;16.71;63.17;102205.03;4983331;28;20105;-65
2022/09/01 04:53:49;;;;;;;5.70;3.95;;;;;;;16.73;62.63;102202.41;4972069;28;20486;-65
2022/09/01 04:56:21;;;;;;;5.60;3.60;;;;;;;16.60;63.14;102201.41;4983805;28;20033;-65
2022/09/01 04:58:52;;;;;;;9.68;3.90;;;;;;;16.57;63.44;102196.09;4977998;28;20903;-65
2022/09/01 05:01:22;;;;;;;5.22;3.60;;;;;;;16.63;63.01;102201.47;4978118;28;20559;-65
2022/09/01 05:03:55;;;;;;;7.53;3.80;;;;;;;16.57;63.20;102198.75;4995454;28;20463;-66
2022/09/01 05:06:21;;;;;;;5.63;3.63;;;;;;;16.64;62.91;102197.97;4977916;28;20084;-65
2022/09/01 05:08:48;;;;;;;4.95;3.40;;;;;;;16.62;62.93;102190.03;4976248;28;20087;-65
2022/09/01 05:11:17;;;;;;;6.03;3.70;;;;;;;16.60;62.98;102201.41;4987600;28;20065;-65
2022/09/01 05:13:44;;;;;;;6.55;4.10;;;;;;;16.77;62.32;102202.44;4963629;28;20410;-65
2022/09/01 05:16:14;;;;;;;6.50;3.70;;;;;;;16.74;62.12;102201.56;4982473;28;20046;-65
2022/09/01 05:18:46;;;;;;;5.63;3.85;;;;;;;16.69;62.44;102205.91;4975618;28;20776;-65
2022/09/01 05:21:20;;;;;;;7.28;3.90;;;;;;;16.73;62.40;102202.41;4993014;28;20091;-65
2022/09/01 05:23:48;;;;;;;5.43;3.83;;;;;;;16.84;61.79;102200.75;4974627;28;20041;-65
2022/09/01 05:26:16;;;;;;;6.97;4.30;;;;;;;16.70;61.97;102205.03;4982992;28;20051;-65
2022/09/01 05:28:44;;;;;;;7.82;3.97;;;;;;;16.72;62.05;102198.91;4984497;28;20033;-65
2022/09/01 05:31:11;;;;;;;7.38;4.00;;;;;;;16.66;62.03;102196.22;4973950;28;20555;-65
2022/09/01 05:33:44;;;;;;;5.70;3.90;;;;;;;16.92;61.04;102196.44;4978580;28;20040;-65
2022/09/01 05:36:12;;;;;;;8.43;4.20;;;;;;;16.83;61.28;102191.97;4987743;28;20040;-65
2022/09/01 05:38:42;;;;;;;5.20;3.80;;;;;;;17.02;60.84;102193.88;4985682;28;20032;-65
2022/09/01 05:41:10;;;;;;;5.80;3.72;;;;;;;17.19;60.09;102190.53;4982384;28;20041;-65
2022/09/01 05:43:36;;;;;;;6.97;3.97;;;;;;;17.15;60.40;102194.88;4971356;28;20072;-64
2022/09/01 05:46:06;;;;;;;6.78;3.97;;;;;;;17.32;59.89;102202.91;4978303;28;20307;-65
2022/09/01 05:48:34;;;;;;;4.78;3.58;;;;;;;17.20;59.97;102201.03;4979871;28;20611;-65
2022/09/01 05:50:59;;;;;;;7.15;3.90;;;;;;;17.19;59.83;102201.94;4987166;28;20128;-66
2022/09/01 05:53:29;;;;;;;6.13;3.60;;;;;;;17.51;58.50;102194.22;4981106;28;20045;-65
2022/09/01 05:55:56;;;;;;;10.25;3.75;;;;;;;17.22;59.09;102196.69;4987137;28;20042;-63
2022/09/01 05:58:24;;;;;;;4.60;3.42;;;;;;;17.19;59.25;102201.06;4975988;28;20104;-65
2022/09/01 06:00:53;;;;;;;5.80;3.63;;;;;;;17.65;57.78;102197.88;4984421;28;20048;-65
2022/09/01 06:03:21;;;;;;;7.95;3.53;;;;;;;17.62;57.97;102200.50;4987853;28;20026;-65
2022/09/01 06:05:51;;;;;;;8.90;3.72;;;;;;;17.78;57.29;102210.25;4981183;28;20033;-66
2022/09/01 06:08:18;;;;;;;5.30;3.67;;;;;;;17.90;56.86;102209.41;4978274;28;20107;-65
2022/09/01 06:10:44;;;;;;;8.45;3.45;;;;;;;18.14;56.73;102208.63;4983932;28;20037;-66
2022/09/01 06:13:10;;;;;;;5.68;3.60;;;;;;;18.09;55.94;102213.00;4979487;28;20072;-65
2022/09/01 06:15:39;;;;;;;6.85;3.63;;;;;;;17.83;56.62;102203.22;4979943;28;20042;-65
2022/09/01 06:18:07;;;;;;;7.47;3.70;;;;;;;17.90;56.36;102211.19;4978491;28;20095;-65
2022/09/01 06:20:41;;;;;;;6.63;3.53;;;;;;;18.10;56.26;102205.13;4991857;28;20453;-65
2022/09/01 06:23:08;;;;;;;7.63;3.80;;;;;;;17.57;57.25;102201.28;4972413;28;20030;-65
2022/09/01 06:25:41;;;;;;;5.80;3.65;;;;;;;18.07;55.86;102199.81;4965027;28;20093;-65
2022/09/01 06:28:28;;;;;;;6.10;3.55;;;;;;;18.16;55.85;102206.88;5001541;28;20060;-66
2022/09/01 06:30:56;;;;;;;6.30;3.60;;;;;;;18.31;55.98;102206.03;4991895;28;20532;-67
2022/09/01 06:33:29;;;;;;;5.20;3.40;;;;;;;18.55;54.67;102211.41;4978285;28;20124;-65
2022/09/01 06:35:55;;;;;;;6.60;3.20;;;;;;;19.68;51.33;102199.94;4969118;28;20077;-67
2022/09/01 06:38:20;;;;;;;6.65;3.28;;;;;;;19.85;50.52;102199.88;4970106;28;22069;-66
2022/09/01 06:40:47;;;;;;;7.78;3.17;;;;;;;20.79;48.46;102206.44;4985549;28;20041;-66
2022/09/01 06:43:16;;;;;;;7.95;3.30;;;;;;;21.23;47.25;102198.97;4975360;28;20053;-64
2022/09/01 06:45:48;;;;;;;6.43;2.88;;;;;;;21.75;45.82;102204.63;4965774;28;20080;-65
2022/09/01 06:48:15;;;;;;;4.25;2.90;;;;;;;22.28;44.80;102216.38;4987764;28;20808;-65
2022/09/01 06:50:50;;;;;;;6.00;3.13;;;;;;;21.91;45.06;102207.97;4985454;28;20025;-66
2022/09/01 06:53:20;;;;;;;5.75;2.80;;;;;;;22.69;43.64;102205.13;4983100;28;20076;-64
2022/09/01 06:55:48;;;;;;;4.63;2.90;;;;;;;21.76;44.55;102209.06;4969243;28;20201;-65
2022/09/01 06:58:17;;;;;;;4.88;3.00;;;;;;;23.22;42.54;102204.28;4987033;28;20551;-65
2022/09/01 07:00:43;;;;;;;6.35;2.80;;;;;;;22.79;42.75;102205.91;4974168;28;20243;-64
2022/09/01 07:03:12;;;;;;;5.38;2.90;;;;;;;22.12;43.99;102207.75;4985989;28;20221;-64
2022/09/01 07:05:40;;;;;;;5.22;2.60;;;;;;;23.54;41.80;102203.72;4979707;28;20078;-64
2022/09/01 07:08:08;;;;;;;6.00;2.88;;;;;;;22.80;42.63;102202.34;4983053;28;20034;-64
2022/09/01 07:10:44;;;;;;;6.88;3.00;;;;;;;22.86;42.61;102212.88;4976537;28;20037;-65
2022/09/01 07:13:24;;;;;;;4.35;2.47;;;;;;;23.29;42.55;102213.91;4985731;28;20035;-67
2022/09/01 07:15:52;;;;;;;6.57;2.90;;;;;;;23.27;41.48;102210.38;4975081;28;20083;-63
2022/09/01 07:18:21;;;;;;;4.90;2.67;;;;;;;23.10;41.20;102206.28;4998009;28;21138;-64
2022/09/01 07:20:47;;;;;;;7.50;2.80;;;;;;;22.73;42.35;102214.88;4970881;28;20130;-64
2022/09/01 07:23:28;;;;;;;6.15;2.85;;;;;;;22.86;41.69;102212.88;4975357;28;20266;-65
2022/09/01 07:26:05;;;;;;;5.85;2.70;;;;;;;22.97;42.35;102214.47;4966882;28;20049;-65
2022/09/01 07:28:32;;;;;;;6.70;2.80;;;;;;;23.18;40.68;102213.19;4981167;28;20029;-66
2022/09/01 07:30:57;;;;;;;4.72;2.80;;;;;;;23.21;41.43;102209.63;4983644;28;20033;-66
2022/09/01 07:33:30;;;;;;;7.05;2.60;;;;;;;23.71;40.29;102214.03;4983593;28;20064;-65
2022/09/01 07:35:56;;;;;;;5.53;3.00;;;;;;;23.47;40.82;102212.72;4979546;28;20029;-65
2022/09/01 07:38:24;;;;;;;4.70;2.67;;;;;;;23.30;41.05;102217.41;4975326;28;20243;-65
2022/09/01 07:40:54;;;;;;;6.85;2.90;;;;;;;22.89;42.31;102215.47;4974666;28;20048;-70
2022/09/01 07:43:27;;;;;;;8.70;2.90;;;;;;;22.71;42.28;102221.06;4982783;28;20128;-65
2022/09/01 07:45:58;;;;;;;5.82;3.00;;;;;;;23.47;40.75;102211.84;4983699;28;20017;-63
2022/09/01 07:48:26;;;;;;;5.03;2.85;;;;;;;23.53;40.81;102214.38;4989221;28;20075;-65
2022/09/01 07:50:55;;;;;;;7.43;3.00;;;;;;;23.63;41.06;102215.97;4980500;28;20586;-65
2022/09/01 07:53:31;;;;;;;5.65;2.97;;;;;;;23.15;42.27;102215.03;4983369;28;20049;-65
2022/09/01 07:56:00;;;;;;;6.25;2.90;;;;;;;24.04;40.31;102210.66;4981154;28;20038;-65
2022/09/01 07:58:28;;;;;;;7.95;3.20;;;;;;;23.65;41.26;102219.47;4974832;28;20512;-64
2022/09/01 08:00:54;;;;;;;8.18;3.00;;;;;;;22.88;42.74;102216.38;4990127;28;20061;-65
2022/09/01 08:03:28;;;;;;;7.30;3.10;;;;;;;23.10;42.99;102219.56;4983888;28;20042;-64
2022/09/01 08:05:59;;;;;;;7.30;3.50;;;;;;;22.12;44.72;102218.38;4983784;28;20025;-65
2022/09/01 08:08:25;;;;;;;8.02;3.50;;;;;;;21.82;45.91;102214.28;4990501;28;20097;-64
2022/09/01 08:10:50;;;;;;;5.78;3.40;;;;;;;21.69;45.61;102225.06;4975267;28;20037;-65
2022/09/01 08:13:17;;;;;;;13.00;3.58;;;;;;;21.95;45.50;102227.41;4989682;28;20076;-65
2022/09/01 08:15:42;;;;;;;7.60;3.50;;;;;;;22.31;45.43;102226.09;4960628;28;20036;-65
2022/09/01 08:18:08;;;;;;;9.98;3.55;;;;;;;22.50;45.38;102224.94;4989260;28;20922;-64
2022/09/01 08:20:38;;;;;;;9.93;3.30;;;;;;;22.65;43.92;102224.69;4989774;28;20030;-64
2022/09/01 08:23:12;;;;;;;7.68;3.45;;;;;;;22.62;44.34;102233.59;4975702;28;20064;-66
2022/09/01 08:25:38;;;;;;;;;;;;;;;22.44;43.69;102233.88;4977108;28;20041;-64
2022/09/01 08:28:04;;;;;;;5.00;3.00;;;;;;;22.38;44.17;102228.66;4981800;28;19921;-65
2022/09/01 08:30:33;;;;;;;5.88;3.03;;;;;;;22.71;44.17;102224.59;4985862;28;20508;-64
2022/09/01 08:33:00;;;;;;;5.00;2.97;;;;;;;22.90;43.71;102218.13;4988261;28;20037;-64
2022/09/01 08:35:30;;;;;;;5.05;3.10;;;;;;;22.97;42.80;102217.13;4962551;28;20049;-65
2022/09/01 08:37:57;;;;;;;6.43;2.80;;;;;;;23.41;43.50;102215.47;4987795;28;20029;-64
2022/09/01 08:40:32;;;;;;;6.03;3.00;;;;;;;23.52;41.77;102213.50;4939446;28;20045;-65
2022/09/01 08:43:18;;;;;;;5.85;2.95;;;;;;;23.27;42.24;102222.81;5004906;28;20068;-64
2022/09/01 08:45:52;;;;;;;9.70;2.90;;;;;;;23.73;41.37;102221.06;4972003;28;20335;-63
2022/09/01 08:48:28;;;;;;;3.80;2.70;;;;;;;23.86;41.36;102219.03;4989023;28;20025;-65
2022/09/01 08:51:14;;;;;;;6.65;3.00;;;;;;;23.64;41.86;102218.59;4989371;28;20125;-65
2022/09/01 08:53:49;;;;;;;6.97;3.20;;;;;;;23.47;41.47;102212.72;4972410;28;20418;-65
2022/09/01 08:56:17;;;;;;;5.90;3.03;;;;;;;23.76;41.97;102215.69;4980446;28;20029;-63
2022/09/01 08:58:42;;;;;;;5.10;2.58;;;;;;;24.04;41.25;102205.34;4970301;28;20482;-64
2022/09/01 09:01:28;;;;;;;6.30;3.03;;;;;;;23.71;42.41;102219.34;4985217;28;20021;-65
2022/09/01 09:04:07;;;;;;;6.10;3.13;;;;;;;24.14;40.92;102209.56;4982666;28;20092;-64
2022/09/01 09:07:00;;;;;;;8.20;2.90;;;;;;;23.88;40.98;102203.91;4967745;28;21066;-65
2022/09/01 09:09:37;;;;;;;8.23;3.13;;;;;;;24.39;40.94;102207.28;4974142;28;20509;-65
2022/09/01 09:12:23;;;;;;;4.43;2.60;;;;;;;24.77;39.61;102198.34;4974906;28;20056;-66
2022/09/01 09:15:01;;;;;;;7.10;2.70;;;;;;;24.73;39.69;102201.13;4982967;28;20038;-64
2022/09/01 09:17:33;;;;;;;10.77;3.10;;;;;;;24.62;40.08;102207.63;4972127;28;20052;-66
2022/09/01 09:19:59;;;;;;;7.82;2.72;;;;;;;24.46;39.90;102194.66;4978948;28;20491;-65
2022/09/01 09:22:25;;;;;;;15.80;2.97;;;;;;;24.18;39.34;102189.97;4983829;28;20549;-65
2022/09/01 09:24:54;;;;;;;5.32;2.55;;;;;;;24.65;39.22;102188.84;4984875;28;20029;-65
2022/09/01 09:27:30;;;;;;;5.20;3.00;;;;;;;24.46;39.29;102190.19;4973016;28;20033;-65
2022/09/01 09:30:33;;;;;;;7.97;2.92;;;;;;;24.20;40.07;102187.28;4992790;28;20802;-65
2022/09/01 09:33:06;;;;;;;5.90;2.92;;;;;;;24.44;39.37;102186.72;4987898;28;20867;-64
2022/09/01 09:35:42;;;;;;;5.05;2.80;;;;;;;24.55;39.20;102184.66;4960439;28;20053;-65
2022/09/01 09:38:30;;;;;;;4.10;2.50;;;;;;;24.57;38.94;102182.84;4945868;28;20121;-65
2022/09/01 09:40:59;;;;;;;11.18;2.65;;;;;;;25.10;38.25;102185.09;4982913;28;20087;-65
2022/09/01 09:43:28;;;;;;;5.88;2.35;;;;;;;25.59;37.92;102182.03;4974363;28;20026;-65
2022/09/01 09:46:32;;;;;;;4.07;2.30;;;;;;;25.99;36.88;102187.06;4979794;28;20049;-64
2022/09/01 09:49:27;;;;;;;3.80;2.42;;;;;;;26.13;36.53;102175.03;4980438;28;20049;-65
2022/09/01 09:52:10;;;;;;;8.32;2.42;;;;;;;25.98;37.05;102180.00;4969929;28;20029;-65
2022/09/01 09:55:20;;;;;;;7.20;2.55;;;;;;;25.54;37.81;102173.22;4981418;28;20115;-66
2022/09/01 09:57:47;;;;;;;11.95;2.72;;;;;;;24.84;38.32;102181.28;4976950;28;20088;-66
2022/09/01 10:00:23;;;;;;;4.97;2.47;;;;;;;24.86;37.38;102166.13;4973981;28;20069;-66
2022/09/01 10:03:06;;;;;;;5.72;2.40;;;;;;;25.37;36.66;102169.22;4987914;28;20116;-66
2022/09/01 10:05:39;;;;;;;5.85;2.63;;;;;;;25.09;36.61;102162.88;4977958;28;20048;-66
2022/09/01 10:08:09;;;;;;;9.40;2.40;;;;;;;24.95;37.03;102178.38;4985681;28;20045;-65
2022/09/01 10:10:43;;;;;;;4.72;2.10;;;;;;;25.26;37.16;102167.75;4988039;28;20513;-67
2022/09/01 10:13:14;;;;;;;5.95;2.20;;;;;;;25.45;35.94;102153.88;4975580;28;20030;-66
2022/09/01 10:15:46;;;;;;;5.25;2.03;;;;;;;25.75;34.88;102165.50;4975326;28;20033;-66
2022/09/01 10:18:16;;;;;;;5.80;1.90;;;;;;;25.54;35.70;102159.88;4967666;28;20041;-66
2022/09/01 10:20:50;;;;;;;5.78;1.95;;;;;;;26.06;36.07;102162.78;4989189;28;20120;-65
2022/09/01 10:23:16;;;;;;;6.57;1.75;;;;;;;26.86;34.51;102155.78;4982180;28;20053;-65
2022/09/01 10:25:49;;;;;;;7.57;1.90;;;;;;;26.59;33.82;102152.25;4983217;28;20021;-65
2022/09/01 10:28:22;;;;;;;4.60;1.50;;;;;;;26.80;33.18;102142.59;4977794;28;20127;-65
2022/09/01 10:30:49;;;;;;;;;;;;;;;26.40;33.65;102143.06;4976766;28;20040;-65
2022/09/01 10:33:21;;;;;;;9.10;1.67;;;;;;;26.66;33.60;102143.06;4978020;28;19917;-65
2022/09/01 10:35:51;;;;;;;7.25;1.77;;;;;;;27.09;33.58;102147.84;4994178;28;20465;-65
2022/09/01 10:38:20;;;;;;;4.45;1.88;;;;;;;26.95;33.22;102139.44;4979802;28;20033;-66
2022/09/01 10:41:05;;;;;;;4.30;1.45;;;;;;;27.05;33.65;102141.75;4971665;28;20096;-66
2022/09/01 10:43:49;;;;;;;7.35;1.63;;;;;;;27.02;32.84;102141.84;4977018;28;20057;-67
2022/09/01 10:46:20;;;;;;;7.75;1.80;;;;;;;26.01;33.87;102147.81;4975403;28;20037;-65
2022/09/01 10:48:49;;;;;;;5.47;1.48;;;;;;;26.07;33.77;102143.16;4999185;28;20115;-65
2022/09/01 10:51:14;;;;;;;4.40;1.70;;;;;;;26.00;33.14;102141.59;4982429;28;20033;-65
2022/09/01 10:53:54;;;;;;;2.75;1.60;;;;;;;26.36;33.61;102142.28;4981613;28;20469;-64
2022/09/01 10:56:26;;;;;;;6.15;1.50;;;;;;;26.39;33.00;102134.16;4982468;28;20456;-65
2022/09/01 10:59:09;;;;;;;4.10;1.83;;;;;;;26.51;33.26;102125.75;4984181;28;20022;-65
2022/09/01 11:01:44;;;;;;;4.57;1.77;;;;;;;26.81;33.13;102139.88;4976429;28;20163;-65
2022/09/01 11:04:10;;;;;;;6.78;1.65;;;;;;;26.90;33.20;102122.66;4993649;28;20799;-65
2022/09/01 11:07:00;;;;;;;3.22;1.70;;;;;;;26.82;32.70;102127.38;4985701;28;20029;-65
2022/09/01 11:09:49;;;;;;;3.03;1.50;;;;;;;26.99;32.43;102127.69;4979191;28;20033;-66
2022/09/01 11:12:31;;;;;;;5.32;1.65;;;;;;;26.90;32.29;102123.53;4973961;28;20037;-65
2022/09/01 11:15:03;;;;;;;2.65;1.60;;;;;;;26.82;32.46;102128.25;4986617;28;20037;-66
2022/09/01 11:17:56;;;;;;;3.63;1.77;;;;;;;26.32;32.42;102132.59;4926778;28;20141;-66
2022/09/01 11:20:34;;;;;;;3.28;1.90;;;;;;;26.25;32.91;102125.69;4993844;28;20371;-65
2022/09/01 11:23:29;;;;;;;6.15;2.00;;;;;;;26.08;33.51;102128.88;5003444;28;20140;-64
2022/09/01 11:26:31;;;;;;;6.30;1.80;;;;;;;26.72;32.65;102128.59;4999528;28;20493;-69
2022/09/01 11:28:57;;;;;;;4.18;1.88;;;;;;;26.37;33.06;102129.78;4998503;28;20033;-64
2022/09/01 11:31:38;;;;;;;8.77;2.00;;;;;;;26.04;33.87;102129.91;4981213;28;20081;-64
2022/09/01 11:34:09;;;;;;;10.63;2.00;;;;;;;25.99;33.77;102133.63;5014568;28;20049;-65
2022/09/01 11:36:47;;;;;;;2.88;2.15;;;;;;;25.94;34.27;102131.09;4999230;28;20033;-66
2022/09/01 11:39:18;;;;;;;4.18;1.90;;;;;;;26.47;33.17;102115.19;4997681;28;20085;-66
2022/09/01 11:41:55;;;;;;;9.43;2.00;;;;;;;26.69;32.59;102108.19;4982655;28;20439;-65
2022/09/01 11:44:47;;;;;;;8.75;1.98;;;;;;;26.57;33.54;102120.19;5026252;28;20380;-65
2022/09/01 11:47:34;;;;;;;3.65;1.83;;;;;;;26.23;33.28;102116.81;4988679;28;20037;-66
2022/09/01 11:50:04;;;;;;;4.15;1.90;;;;;;;25.73;33.48;102121.06;5020868;28;20033;-66
2022/09/01 11:52:37;;;;;;;4.60;1.77;;;;;;;26.43;32.59;102101.03;5003450;28;20045;-64